<?xml version="1.0" encoding="UTF-8" standalone="no" ?>
<gpx xmlns="http://www.topografix.com/GPX/1/1" xmlns:xsi="http://www.w3.org/2001/XMLSchema-instance" xsi:schemaLocation="http://www.topografix.com/GPX/1/1 http://www.topografix.com/GPX/1/1/gpx.xsd" version="1.1" creator="VisuGPX - https://www.visugpx.com">
  <metadata>
    <name>manquant du  75 Forêt de Raismes 2024 </name>
  </metadata>
  <trk>
    <name><![CDATA[manquant du 75 km-18382723]]></name>
    <extensions>
      <line xmlns="http://www.topografix.com/GPX/gpx_style/0/2">
        <color>0000FF</color>
        <width>4</width>
      </line>
    </extensions>
    <trkseg>
      <trkpt lat="50.49919" lon="3.4507">
        <ele>17</ele>
        <time>2024-02-18T06:55:14Z</time>
      </trkpt>
      <trkpt lat="50.49864" lon="3.44941">
        <ele>15</ele>
        <time>2024-02-18T06:55:32Z</time>
      </trkpt>
      <trkpt lat="50.4985" lon="3.44907">
        <ele>16</ele>
        <time>2024-02-18T06:55:36Z</time>
      </trkpt>
      <trkpt lat="50.49712" lon="3.44501">
        <ele>15</ele>
        <time>2024-02-18T06:56:28Z</time>
      </trkpt>
      <trkpt lat="50.49677" lon="3.44409">
        <ele>17</ele>
        <time>2024-02-18T06:56:40Z</time>
      </trkpt>
      <trkpt lat="50.49671" lon="3.44398">
        <ele>17</ele>
        <time>2024-02-18T06:56:42Z</time>
      </trkpt>
      <trkpt lat="50.49683" lon="3.44384">
        <ele>17</ele>
        <time>2024-02-18T06:56:45Z</time>
      </trkpt>
      <trkpt lat="50.49671" lon="3.44398">
        <ele>17</ele>
        <time>2024-02-18T06:56:47Z</time>
      </trkpt>
      <trkpt lat="50.49662" lon="3.44394">
        <ele>17</ele>
        <time>2024-02-18T06:56:49Z</time>
      </trkpt>
      <trkpt lat="50.49656" lon="3.44395">
        <ele>17</ele>
        <time>2024-02-18T06:56:50Z</time>
      </trkpt>
      <trkpt lat="50.49645" lon="3.44403">
        <ele>18</ele>
        <time>2024-02-18T06:56:52Z</time>
      </trkpt>
      <trkpt lat="50.49579" lon="3.44483">
        <ele>19</ele>
        <time>2024-02-18T06:57:07Z</time>
      </trkpt>
      <trkpt lat="50.49557" lon="3.44506">
        <ele>19</ele>
        <time>2024-02-18T06:57:12Z</time>
      </trkpt>
      <trkpt lat="50.4953" lon="3.4453">
        <ele>20</ele>
        <time>2024-02-18T06:57:17Z</time>
      </trkpt>
      <trkpt lat="50.49486" lon="3.44563">
        <ele>19</ele>
        <time>2024-02-18T06:57:26Z</time>
      </trkpt>
      <trkpt lat="50.49472" lon="3.44579">
        <ele>19</ele>
        <time>2024-02-18T06:57:29Z</time>
      </trkpt>
      <trkpt lat="50.49221" lon="3.44971">
        <ele>18</ele>
        <time>2024-02-18T06:58:32Z</time>
      </trkpt>
      <trkpt lat="50.49169" lon="3.45049">
        <ele>19</ele>
        <time>2024-02-18T06:58:45Z</time>
      </trkpt>
      <trkpt lat="50.49034" lon="3.45241">
        <ele>17</ele>
        <time>2024-02-18T06:59:17Z</time>
      </trkpt>
      <trkpt lat="50.48985" lon="3.45328">
        <ele>16</ele>
        <time>2024-02-18T06:59:30Z</time>
      </trkpt>
      <trkpt lat="50.48958" lon="3.45362">
        <ele>16</ele>
        <time>2024-02-18T06:59:36Z</time>
      </trkpt>
      <trkpt lat="50.48914" lon="3.45414">
        <ele>16</ele>
        <time>2024-02-18T06:59:46Z</time>
      </trkpt>
      <trkpt lat="50.48798" lon="3.45542">
        <ele>15</ele>
        <time>2024-02-18T07:00:12Z</time>
      </trkpt>
      <trkpt lat="50.48768" lon="3.45566">
        <ele>14</ele>
        <time>2024-02-18T07:00:17Z</time>
      </trkpt>
      <trkpt lat="50.48729" lon="3.45581">
        <ele>14</ele>
        <time>2024-02-18T07:00:25Z</time>
      </trkpt>
      <trkpt lat="50.48704" lon="3.45584">
        <ele>14</ele>
        <time>2024-02-18T07:00:29Z</time>
      </trkpt>
      <trkpt lat="50.48673" lon="3.45579">
        <ele>14</ele>
        <time>2024-02-18T07:00:35Z</time>
      </trkpt>
      <trkpt lat="50.48656" lon="3.45573">
        <ele>14</ele>
        <time>2024-02-18T07:00:38Z</time>
      </trkpt>
      <trkpt lat="50.486" lon="3.45548">
        <ele>14</ele>
        <time>2024-02-18T07:00:48Z</time>
      </trkpt>
      <trkpt lat="50.48571" lon="3.45541">
        <ele>14</ele>
        <time>2024-02-18T07:00:53Z</time>
      </trkpt>
      <trkpt lat="50.48551" lon="3.45539">
        <ele>15</ele>
        <time>2024-02-18T07:00:57Z</time>
      </trkpt>
      <trkpt lat="50.4845" lon="3.45539">
        <ele>17</ele>
        <time>2024-02-18T07:01:15Z</time>
      </trkpt>
      <trkpt lat="50.48427" lon="3.45542">
        <ele>17</ele>
        <time>2024-02-18T07:01:19Z</time>
      </trkpt>
      <trkpt lat="50.48399" lon="3.45554">
        <ele>17</ele>
        <time>2024-02-18T07:01:24Z</time>
      </trkpt>
      <trkpt lat="50.48377" lon="3.4557">
        <ele>16</ele>
        <time>2024-02-18T07:01:28Z</time>
      </trkpt>
      <trkpt lat="50.48351" lon="3.45596">
        <ele>16</ele>
        <time>2024-02-18T07:01:34Z</time>
      </trkpt>
      <trkpt lat="50.48324" lon="3.45624">
        <ele>16</ele>
        <time>2024-02-18T07:01:40Z</time>
      </trkpt>
      <trkpt lat="50.48262" lon="3.45683">
        <ele>14</ele>
        <time>2024-02-18T07:01:53Z</time>
      </trkpt>
      <trkpt lat="50.48234" lon="3.45715">
        <ele>15</ele>
        <time>2024-02-18T07:01:59Z</time>
      </trkpt>
      <trkpt lat="50.48182" lon="3.45773">
        <ele>16</ele>
        <time>2024-02-18T07:02:10Z</time>
      </trkpt>
      <trkpt lat="50.48153" lon="3.45809">
        <ele>16</ele>
        <time>2024-02-18T07:02:17Z</time>
      </trkpt>
      <trkpt lat="50.48105" lon="3.45876">
        <ele>17</ele>
        <time>2024-02-18T07:02:28Z</time>
      </trkpt>
      <trkpt lat="50.48099" lon="3.45881">
        <ele>17</ele>
        <time>2024-02-18T07:02:29Z</time>
      </trkpt>
      <trkpt lat="50.48089" lon="3.45884">
        <ele>17</ele>
        <time>2024-02-18T07:02:31Z</time>
      </trkpt>
      <trkpt lat="50.48035" lon="3.45888">
        <ele>17</ele>
        <time>2024-02-18T07:02:41Z</time>
      </trkpt>
      <trkpt lat="50.4796" lon="3.45921">
        <ele>18</ele>
        <time>2024-02-18T07:02:55Z</time>
      </trkpt>
      <trkpt lat="50.47948" lon="3.45924">
        <ele>18</ele>
        <time>2024-02-18T07:02:57Z</time>
      </trkpt>
      <trkpt lat="50.47915" lon="3.45923">
        <ele>18</ele>
        <time>2024-02-18T07:03:03Z</time>
      </trkpt>
      <trkpt lat="50.47875" lon="3.45915">
        <ele>17</ele>
        <time>2024-02-18T07:03:10Z</time>
      </trkpt>
      <trkpt lat="50.47854" lon="3.45906">
        <ele>17</ele>
        <time>2024-02-18T07:03:14Z</time>
      </trkpt>
      <trkpt lat="50.4779" lon="3.45866">
        <ele>16</ele>
        <time>2024-02-18T07:03:26Z</time>
      </trkpt>
      <trkpt lat="50.47714" lon="3.45801">
        <ele>16</ele>
        <time>2024-02-18T07:03:41Z</time>
      </trkpt>
      <trkpt lat="50.47632" lon="3.45775">
        <ele>17</ele>
        <time>2024-02-18T07:03:56Z</time>
      </trkpt>
      <trkpt lat="50.47615" lon="3.45764">
        <ele>17</ele>
        <time>2024-02-18T07:03:59Z</time>
      </trkpt>
      <trkpt lat="50.47523" lon="3.45663">
        <ele>16</ele>
        <time>2024-02-18T07:04:19Z</time>
      </trkpt>
      <trkpt lat="50.47424" lon="3.45575">
        <ele>15</ele>
        <time>2024-02-18T07:04:40Z</time>
      </trkpt>
      <trkpt lat="50.47407" lon="3.45565">
        <ele>15</ele>
        <time>2024-02-18T07:04:43Z</time>
      </trkpt>
      <trkpt lat="50.47384" lon="3.45557">
        <ele>16</ele>
        <time>2024-02-18T07:04:47Z</time>
      </trkpt>
      <trkpt lat="50.47357" lon="3.45554">
        <ele>16</ele>
        <time>2024-02-18T07:04:52Z</time>
      </trkpt>
      <trkpt lat="50.47335" lon="3.45557">
        <ele>17</ele>
        <time>2024-02-18T07:04:56Z</time>
      </trkpt>
      <trkpt lat="50.47321" lon="3.45561">
        <ele>16</ele>
        <time>2024-02-18T07:04:58Z</time>
      </trkpt>
      <trkpt lat="50.47291" lon="3.45581">
        <ele>16</ele>
        <time>2024-02-18T07:05:04Z</time>
      </trkpt>
      <trkpt lat="50.47218" lon="3.45638">
        <ele>15</ele>
        <time>2024-02-18T07:05:19Z</time>
      </trkpt>
      <trkpt lat="50.47203" lon="3.4565">
        <ele>15</ele>
        <time>2024-02-18T07:05:22Z</time>
      </trkpt>
      <trkpt lat="50.47183" lon="3.45661">
        <ele>15</ele>
        <time>2024-02-18T07:05:25Z</time>
      </trkpt>
      <trkpt lat="50.47163" lon="3.45664">
        <ele>15</ele>
        <time>2024-02-18T07:05:29Z</time>
      </trkpt>
      <trkpt lat="50.47144" lon="3.45665">
        <ele>15</ele>
        <time>2024-02-18T07:05:32Z</time>
      </trkpt>
      <trkpt lat="50.47142" lon="3.45681">
        <ele>15</ele>
        <time>2024-02-18T07:05:34Z</time>
      </trkpt>
      <trkpt lat="50.47142" lon="3.45688">
        <ele>15</ele>
        <time>2024-02-18T07:05:35Z</time>
      </trkpt>
      <trkpt lat="50.47137" lon="3.45702">
        <ele>15</ele>
        <time>2024-02-18T07:05:37Z</time>
      </trkpt>
      <trkpt lat="50.47097" lon="3.45758">
        <ele>16</ele>
        <time>2024-02-18T07:05:46Z</time>
      </trkpt>
      <trkpt lat="50.47071" lon="3.45799">
        <ele>17</ele>
        <time>2024-02-18T07:05:53Z</time>
      </trkpt>
      <trkpt lat="50.46999" lon="3.45923">
        <ele>18</ele>
        <time>2024-02-18T07:06:12Z</time>
      </trkpt>
      <trkpt lat="50.46993" lon="3.45938">
        <ele>18</ele>
        <time>2024-02-18T07:06:14Z</time>
      </trkpt>
      <trkpt lat="50.46984" lon="3.4597">
        <ele>18</ele>
        <time>2024-02-18T07:06:18Z</time>
      </trkpt>
      <trkpt lat="50.4698" lon="3.45977">
        <ele>18</ele>
        <time>2024-02-18T07:06:19Z</time>
      </trkpt>
      <trkpt lat="50.46983" lon="3.45992">
        <ele>18</ele>
        <time>2024-02-18T07:06:21Z</time>
      </trkpt>
      <trkpt lat="50.46984" lon="3.46018">
        <ele>17</ele>
        <time>2024-02-18T07:06:24Z</time>
      </trkpt>
      <trkpt lat="50.46982" lon="3.46048">
        <ele>17</ele>
        <time>2024-02-18T07:06:27Z</time>
      </trkpt>
      <trkpt lat="50.46973" lon="3.46126">
        <ele>16</ele>
        <time>2024-02-18T07:06:36Z</time>
      </trkpt>
      <trkpt lat="50.46975" lon="3.46222">
        <ele>16</ele>
        <time>2024-02-18T07:06:47Z</time>
      </trkpt>
      <trkpt lat="50.46972" lon="3.46248">
        <ele>16</ele>
        <time>2024-02-18T07:06:50Z</time>
      </trkpt>
      <trkpt lat="50.46964" lon="3.4629">
        <ele>16</ele>
        <time>2024-02-18T07:06:55Z</time>
      </trkpt>
      <trkpt lat="50.46963" lon="3.46304">
        <ele>16</ele>
        <time>2024-02-18T07:06:57Z</time>
      </trkpt>
      <trkpt lat="50.46966" lon="3.46314">
        <ele>16</ele>
        <time>2024-02-18T07:06:58Z</time>
      </trkpt>
      <trkpt lat="50.46969" lon="3.46321">
        <ele>16</ele>
        <time>2024-02-18T07:06:59Z</time>
      </trkpt>
      <trkpt lat="50.47009" lon="3.46376">
        <ele>16</ele>
        <time>2024-02-18T07:07:08Z</time>
      </trkpt>
      <trkpt lat="50.47017" lon="3.46392">
        <ele>16</ele>
        <time>2024-02-18T07:07:11Z</time>
      </trkpt>
      <trkpt lat="50.47024" lon="3.46412">
        <ele>16</ele>
        <time>2024-02-18T07:07:13Z</time>
      </trkpt>
      <trkpt lat="50.47031" lon="3.46441">
        <ele>16</ele>
        <time>2024-02-18T07:07:17Z</time>
      </trkpt>
      <trkpt lat="50.47039" lon="3.46498">
        <ele>16</ele>
        <time>2024-02-18T07:07:23Z</time>
      </trkpt>
      <trkpt lat="50.47038" lon="3.4652">
        <ele>16</ele>
        <time>2024-02-18T07:07:26Z</time>
      </trkpt>
      <trkpt lat="50.47035" lon="3.46541">
        <ele>16</ele>
        <time>2024-02-18T07:07:28Z</time>
      </trkpt>
      <trkpt lat="50.4703" lon="3.46563">
        <ele>15</ele>
        <time>2024-02-18T07:07:31Z</time>
      </trkpt>
      <trkpt lat="50.47022" lon="3.46584">
        <ele>15</ele>
        <time>2024-02-18T07:07:34Z</time>
      </trkpt>
      <trkpt lat="50.47006" lon="3.46624">
        <ele>15</ele>
        <time>2024-02-18T07:07:39Z</time>
      </trkpt>
      <trkpt lat="50.46998" lon="3.46655">
        <ele>15</ele>
        <time>2024-02-18T07:07:43Z</time>
      </trkpt>
      <trkpt lat="50.46991" lon="3.46685">
        <ele>15</ele>
        <time>2024-02-18T07:07:46Z</time>
      </trkpt>
      <trkpt lat="50.46989" lon="3.46712">
        <ele>16</ele>
        <time>2024-02-18T07:07:49Z</time>
      </trkpt>
      <trkpt lat="50.46992" lon="3.46729">
        <ele>16</ele>
        <time>2024-02-18T07:07:51Z</time>
      </trkpt>
      <trkpt lat="50.46996" lon="3.46741">
        <ele>17</ele>
        <time>2024-02-18T07:07:53Z</time>
      </trkpt>
      <trkpt lat="50.47071" lon="3.46902">
        <ele>16</ele>
        <time>2024-02-18T07:08:16Z</time>
      </trkpt>
      <trkpt lat="50.47065" lon="3.46912">
        <ele>16</ele>
        <time>2024-02-18T07:08:17Z</time>
      </trkpt>
      <trkpt lat="50.47051" lon="3.46971">
        <ele>16</ele>
        <time>2024-02-18T07:08:24Z</time>
      </trkpt>
      <trkpt lat="50.47028" lon="3.47041">
        <ele>16</ele>
        <time>2024-02-18T07:08:33Z</time>
      </trkpt>
      <trkpt lat="50.46993" lon="3.47139">
        <ele>18</ele>
        <time>2024-02-18T07:08:46Z</time>
      </trkpt>
      <trkpt lat="50.46977" lon="3.47176">
        <ele>18</ele>
        <time>2024-02-18T07:08:51Z</time>
      </trkpt>
      <trkpt lat="50.46954" lon="3.47218">
        <ele>17</ele>
        <time>2024-02-18T07:08:57Z</time>
      </trkpt>
      <trkpt lat="50.46912" lon="3.47284">
        <ele>16</ele>
        <time>2024-02-18T07:09:08Z</time>
      </trkpt>
      <trkpt lat="50.46876" lon="3.47318">
        <ele>16</ele>
        <time>2024-02-18T07:09:15Z</time>
      </trkpt>
      <trkpt lat="50.46868" lon="3.47336">
        <ele>16</ele>
        <time>2024-02-18T07:09:18Z</time>
      </trkpt>
      <trkpt lat="50.46866" lon="3.47351">
        <ele>16</ele>
        <time>2024-02-18T07:09:19Z</time>
      </trkpt>
      <trkpt lat="50.46867" lon="3.4736">
        <ele>16</ele>
        <time>2024-02-18T07:09:21Z</time>
      </trkpt>
      <trkpt lat="50.46891" lon="3.47418">
        <ele>16</ele>
        <time>2024-02-18T07:09:28Z</time>
      </trkpt>
      <trkpt lat="50.46898" lon="3.47439">
        <ele>16</ele>
        <time>2024-02-18T07:09:31Z</time>
      </trkpt>
      <trkpt lat="50.46899" lon="3.47459">
        <ele>16</ele>
        <time>2024-02-18T07:09:33Z</time>
      </trkpt>
      <trkpt lat="50.46894" lon="3.47483">
        <ele>16</ele>
        <time>2024-02-18T07:09:36Z</time>
      </trkpt>
      <trkpt lat="50.46862" lon="3.47589">
        <ele>17</ele>
        <time>2024-02-18T07:09:49Z</time>
      </trkpt>
      <trkpt lat="50.46846" lon="3.4763">
        <ele>17</ele>
        <time>2024-02-18T07:09:55Z</time>
      </trkpt>
      <trkpt lat="50.46807" lon="3.47709">
        <ele>17</ele>
        <time>2024-02-18T07:10:06Z</time>
      </trkpt>
      <trkpt lat="50.46778" lon="3.47771">
        <ele>17</ele>
        <time>2024-02-18T07:10:15Z</time>
      </trkpt>
      <trkpt lat="50.46729" lon="3.47853">
        <ele>17</ele>
        <time>2024-02-18T07:10:28Z</time>
      </trkpt>
      <trkpt lat="50.467" lon="3.47891">
        <ele>17</ele>
        <time>2024-02-18T07:10:34Z</time>
      </trkpt>
      <trkpt lat="50.46637" lon="3.47971">
        <ele>17</ele>
        <time>2024-02-18T07:10:49Z</time>
      </trkpt>
      <trkpt lat="50.467" lon="3.47891">
        <ele>17</ele>
        <time>2024-02-18T07:11:03Z</time>
      </trkpt>
      <trkpt lat="50.46747" lon="3.48019">
        <ele>18</ele>
        <time>2024-02-18T07:11:20Z</time>
      </trkpt>
      <trkpt lat="50.46755" lon="3.48038">
        <ele>19</ele>
        <time>2024-02-18T07:11:23Z</time>
      </trkpt>
      <trkpt lat="50.46872" lon="3.48229">
        <ele>25</ele>
        <time>2024-02-18T07:11:53Z</time>
      </trkpt>
      <trkpt lat="50.46878" lon="3.48246">
        <ele>26</ele>
        <time>2024-02-18T07:11:55Z</time>
      </trkpt>
      <trkpt lat="50.46865" lon="3.48253">
        <ele>25</ele>
        <time>2024-02-18T07:11:57Z</time>
      </trkpt>
      <trkpt lat="50.46854" lon="3.48263">
        <ele>25</ele>
        <time>2024-02-18T07:11:59Z</time>
      </trkpt>
      <trkpt lat="50.46806" lon="3.48326">
        <ele>26</ele>
        <time>2024-02-18T07:12:11Z</time>
      </trkpt>
      <trkpt lat="50.46616" lon="3.48628">
        <ele>24</ele>
        <time>2024-02-18T07:12:59Z</time>
      </trkpt>
      <trkpt lat="50.46364" lon="3.4897">
        <ele>22</ele>
        <time>2024-02-18T07:13:58Z</time>
      </trkpt>
      <trkpt lat="50.46306" lon="3.49064">
        <ele>22</ele>
        <time>2024-02-18T07:14:13Z</time>
      </trkpt>
      <trkpt lat="50.46256" lon="3.49171">
        <ele>24</ele>
        <time>2024-02-18T07:14:28Z</time>
      </trkpt>
      <trkpt lat="50.46241" lon="3.49197">
        <ele>24</ele>
        <time>2024-02-18T07:14:32Z</time>
      </trkpt>
      <trkpt lat="50.4622" lon="3.49222">
        <ele>23</ele>
        <time>2024-02-18T07:14:36Z</time>
      </trkpt>
      <trkpt lat="50.46135" lon="3.49296">
        <ele>25</ele>
        <time>2024-02-18T07:14:54Z</time>
      </trkpt>
      <trkpt lat="50.46122" lon="3.4931">
        <ele>25</ele>
        <time>2024-02-18T07:14:57Z</time>
      </trkpt>
      <trkpt lat="50.46105" lon="3.49331">
        <ele>25</ele>
        <time>2024-02-18T07:15:00Z</time>
      </trkpt>
      <trkpt lat="50.4602" lon="3.49449">
        <ele>25</ele>
        <time>2024-02-18T07:15:21Z</time>
      </trkpt>
      <trkpt lat="50.46004" lon="3.49455">
        <ele>25</ele>
        <time>2024-02-18T07:15:24Z</time>
      </trkpt>
      <trkpt lat="50.45994" lon="3.49454">
        <ele>25</ele>
        <time>2024-02-18T07:15:25Z</time>
      </trkpt>
      <trkpt lat="50.45991" lon="3.49451">
        <ele>25</ele>
        <time>2024-02-18T07:15:26Z</time>
      </trkpt>
      <trkpt lat="50.45984" lon="3.4945">
        <ele>25</ele>
        <time>2024-02-18T07:15:27Z</time>
      </trkpt>
      <trkpt lat="50.45982" lon="3.49452">
        <ele>25</ele>
        <time>2024-02-18T07:15:28Z</time>
      </trkpt>
      <trkpt lat="50.45976" lon="3.49458">
        <ele>25</ele>
        <time>2024-02-18T07:15:29Z</time>
      </trkpt>
      <trkpt lat="50.45975" lon="3.49466">
        <ele>25</ele>
        <time>2024-02-18T07:15:30Z</time>
      </trkpt>
      <trkpt lat="50.45976" lon="3.49477">
        <ele>25</ele>
        <time>2024-02-18T07:15:31Z</time>
      </trkpt>
      <trkpt lat="50.45981" lon="3.49484">
        <ele>26</ele>
        <time>2024-02-18T07:15:32Z</time>
      </trkpt>
      <trkpt lat="50.45985" lon="3.49497">
        <ele>26</ele>
        <time>2024-02-18T07:15:34Z</time>
      </trkpt>
      <trkpt lat="50.45991" lon="3.49533">
        <ele>26</ele>
        <time>2024-02-18T07:15:38Z</time>
      </trkpt>
      <trkpt lat="50.45993" lon="3.49563">
        <ele>27</ele>
        <time>2024-02-18T07:15:42Z</time>
      </trkpt>
      <trkpt lat="50.46012" lon="3.49713">
        <ele>26</ele>
        <time>2024-02-18T07:15:59Z</time>
      </trkpt>
      <trkpt lat="50.46013" lon="3.49739">
        <ele>26</ele>
        <time>2024-02-18T07:16:02Z</time>
      </trkpt>
      <trkpt lat="50.46013" lon="3.49758">
        <ele>26</ele>
        <time>2024-02-18T07:16:04Z</time>
      </trkpt>
      <trkpt lat="50.46003" lon="3.49807">
        <ele>26</ele>
        <time>2024-02-18T07:16:10Z</time>
      </trkpt>
      <trkpt lat="50.45939" lon="3.50086">
        <ele>28</ele>
        <time>2024-02-18T07:16:43Z</time>
      </trkpt>
      <trkpt lat="50.46033" lon="3.50196">
        <ele>30</ele>
        <time>2024-02-18T07:17:04Z</time>
      </trkpt>
      <trkpt lat="50.46116" lon="3.50265">
        <ele>30</ele>
        <time>2024-02-18T07:17:21Z</time>
      </trkpt>
      <trkpt lat="50.46161" lon="3.503">
        <ele>30</ele>
        <time>2024-02-18T07:17:30Z</time>
      </trkpt>
      <trkpt lat="50.46171" lon="3.50305">
        <ele>30</ele>
        <time>2024-02-18T07:17:32Z</time>
      </trkpt>
      <trkpt lat="50.46167" lon="3.50359">
        <ele>30</ele>
        <time>2024-02-18T07:17:38Z</time>
      </trkpt>
      <trkpt lat="50.46168" lon="3.5037">
        <ele>30</ele>
        <time>2024-02-18T07:17:39Z</time>
      </trkpt>
      <trkpt lat="50.46172" lon="3.50379">
        <ele>30</ele>
        <time>2024-02-18T07:17:40Z</time>
      </trkpt>
      <trkpt lat="50.46287" lon="3.5052">
        <ele>30</ele>
        <time>2024-02-18T07:18:06Z</time>
      </trkpt>
      <trkpt lat="50.46323" lon="3.50587">
        <ele>28</ele>
        <time>2024-02-18T07:18:16Z</time>
      </trkpt>
      <trkpt lat="50.46467" lon="3.50757">
        <ele>25</ele>
        <time>2024-02-18T07:18:48Z</time>
      </trkpt>
      <trkpt lat="50.46477" lon="3.50766">
        <ele>24</ele>
        <time>2024-02-18T07:18:50Z</time>
      </trkpt>
      <trkpt lat="50.46493" lon="3.50772">
        <ele>24</ele>
        <time>2024-02-18T07:18:53Z</time>
      </trkpt>
      <trkpt lat="50.46557" lon="3.50772">
        <ele>21</ele>
        <time>2024-02-18T07:19:05Z</time>
      </trkpt>
      <trkpt lat="50.46732" lon="3.50797">
        <ele>18</ele>
        <time>2024-02-18T07:19:36Z</time>
      </trkpt>
      <trkpt lat="50.46741" lon="3.508">
        <ele>18</ele>
        <time>2024-02-18T07:19:38Z</time>
      </trkpt>
      <trkpt lat="50.46751" lon="3.50812">
        <ele>17</ele>
        <time>2024-02-18T07:19:40Z</time>
      </trkpt>
      <trkpt lat="50.4674" lon="3.50834">
        <ele>17</ele>
        <time>2024-02-18T07:19:43Z</time>
      </trkpt>
      <trkpt lat="50.46704" lon="3.5089">
        <ele>17</ele>
        <time>2024-02-18T07:19:52Z</time>
      </trkpt>
      <trkpt lat="50.46627" lon="3.50972">
        <ele>17</ele>
        <time>2024-02-18T07:20:09Z</time>
      </trkpt>
      <trkpt lat="50.46601" lon="3.51003">
        <ele>17</ele>
        <time>2024-02-18T07:20:14Z</time>
      </trkpt>
      <trkpt lat="50.46482" lon="3.51228">
        <ele>19</ele>
        <time>2024-02-18T07:20:47Z</time>
      </trkpt>
      <trkpt lat="50.46464" lon="3.51268">
        <ele>20</ele>
        <time>2024-02-18T07:20:53Z</time>
      </trkpt>
      <trkpt lat="50.4643" lon="3.51364">
        <ele>20</ele>
        <time>2024-02-18T07:21:05Z</time>
      </trkpt>
      <trkpt lat="50.46404" lon="3.51458">
        <ele>19</ele>
        <time>2024-02-18T07:21:17Z</time>
      </trkpt>
      <trkpt lat="50.46355" lon="3.51623">
        <ele>19</ele>
        <time>2024-02-18T07:21:38Z</time>
      </trkpt>
      <trkpt lat="50.46349" lon="3.51647">
        <ele>19</ele>
        <time>2024-02-18T07:21:41Z</time>
      </trkpt>
    </trkseg>
  </trk>
</gpx>